Terminal Aerodrome Forecast
Issued by NWS

Home | Current Version | Previous Version | Text Only | Print | Product List | Glossary Off
Versions: 1 2 3 4 5 6 7 8 9 10 11 12 13 14 15 16

000
FTUS42 KTBW 022300
TAFRSW
TAF
KRSW 022335Z 0300/0324 13004KT P6SM FEW040 SCT250
     FM030300 VRB03KT P6SM FEW040 SCT250
     FM031600 09006KT P6SM FEW025 SCT250
     FM031800 09006KT P6SM VCTS SCT035CB BKN050=

USA.gov is the U.S. government's official web portal to all federal, state and local government web resources and services.